createdAt,value
2018-12-01T00:02:00.807Z,99.90
2018-12-01T00:04:28.509Z,99.90
2018-12-01T00:06:57.571Z,99.90
2018-12-01T00:09:25.276Z,99.90
2018-12-01T00:11:53.046Z,99.90
2018-12-01T00:14:20.727Z,99.90
2018-12-01T00:16:48.336Z,99.90
2018-12-01T00:19:16.063Z,99.90
2018-12-01T00:21:43.868Z,99.90
2018-12-01T00:24:12.498Z,99.90
2018-12-01T00:26:40.217Z,99.90
2018-12-01T00:29:07.922Z,99.90
2018-12-01T00:31:35.639Z,99.90
2018-12-01T00:34:03.890Z,99.90
2018-12-01T00:36:32.211Z,99.90
2018-12-01T00:38:59.988Z,99.90
2018-12-01T00:41:27.727Z,99.90
2018-12-01T00:43:55.480Z,99.90
2018-12-01T00:46:23.253Z,99.90
2018-12-01T00:48:50.948Z,99.90
2018-12-01T00:51:19.293Z,99.90
2018-12-01T00:53:47.003Z,99.90
2018-12-01T00:56:15.270Z,99.90
2018-12-01T00:58:43.086Z,99.90
2018-12-01T01:01:11.400Z,99.90
2018-12-01T01:03:39.066Z,99.90
2018-12-01T01:06:06.692Z,99.90
2018-12-01T01:08:34.345Z,99.90
2018-12-01T01:11:02.071Z,99.90
2018-12-01T01:13:29.794Z,99.90
2018-12-01T01:15:57.440Z,99.90
2018-12-01T01:18:25.574Z,99.90
2018-12-01T01:20:53.205Z,99.90
2018-12-01T01:23:21.140Z,99.90
2018-12-01T01:25:49.374Z,99.90
2018-12-01T01:28:17.097Z,99.90
2018-12-01T01:30:45.399Z,99.90
2018-12-01T01:33:28.444Z,99.90
2018-12-01T01:35:56.745Z,99.90
2018-12-01T01:38:24.420Z,99.90
2018-12-01T01:40:57.587Z,99.90
2018-12-01T01:43:25.301Z,99.90
2018-12-01T01:45:53.036Z,99.90
2018-12-01T01:48:20.735Z,99.90
2018-12-01T01:50:48.395Z,99.90
2018-12-01T01:53:16.166Z,99.90
2018-12-01T01:55:43.861Z,99.90
2018-12-01T01:58:11.603Z,99.90
2018-12-01T02:00:39.500Z,99.90
2018-12-01T02:03:07.190Z,99.90
2018-12-01T02:05:35.006Z,99.90
2018-12-01T02:08:02.846Z,99.90
2018-12-01T02:10:30.604Z,99.90
2018-12-01T02:12:58.495Z,99.90
2018-12-01T02:15:27.570Z,99.90
2018-12-01T02:17:55.247Z,99.90
2018-12-01T02:20:22.978Z,99.90
2018-12-01T02:22:50.663Z,99.90
2018-12-01T02:25:18.406Z,99.90
2018-12-01T02:27:46.758Z,99.90
2018-12-01T02:30:19.364Z,99.90
2018-12-01T02:32:47.676Z,99.90
2018-12-01T02:35:19.750Z,99.90
2018-12-01T02:37:47.584Z,99.90
2018-12-01T02:40:15.254Z,99.90
2018-12-01T02:42:43.175Z,99.90
2018-12-01T02:45:22.126Z,99.90
2018-12-01T02:47:49.930Z,99.90
2018-12-01T02:50:22.551Z,99.90
2018-12-01T02:52:50.255Z,99.90
2018-12-01T02:55:17.937Z,99.90
2018-12-01T02:57:45.790Z,99.90
2018-12-01T03:00:13.451Z,99.90
2018-12-01T03:02:41.155Z,99.90
2018-12-01T03:05:10.045Z,99.90
2018-12-01T03:07:37.683Z,99.90
2018-12-01T03:10:08.184Z,99.90
2018-12-01T03:12:36.586Z,99.90
2018-12-01T03:15:05.705Z,99.90
2018-12-01T03:17:33.461Z,99.90
2018-12-01T03:20:01.187Z,99.90
2018-12-01T03:22:29.947Z,99.90
2018-12-01T03:24:57.601Z,99.90
2018-12-01T03:27:29.766Z,99.90
2018-12-01T03:29:57.489Z,99.90
2018-12-01T03:32:26.536Z,99.90
2018-12-01T03:34:54.218Z,99.90
2018-12-01T03:37:22.167Z,99.90
2018-12-01T03:39:49.991Z,99.90
2018-12-01T03:42:17.682Z,99.90
2018-12-01T03:44:46.019Z,99.90
2018-12-01T03:47:13.622Z,99.90
2018-12-01T03:49:42.012Z,99.90
2018-12-01T03:52:09.741Z,99.90
2018-12-01T03:54:37.987Z,99.90
2018-12-01T03:57:05.676Z,99.90
2018-12-01T03:59:33.396Z,99.90
2018-12-01T04:02:01.125Z,99.90
2018-12-01T04:04:28.971Z,99.90
2018-12-01T04:06:57.283Z,99.90
2018-12-01T04:09:25.058Z,99.90
2018-12-01T04:11:52.811Z,99.90
2018-12-01T04:14:20.569Z,99.90
2018-12-01T04:16:48.850Z,99.90
2018-12-01T04:19:16.533Z,99.90
2018-12-01T04:21:44.332Z,99.90
2018-12-01T04:24:12.021Z,99.90
2018-12-01T04:26:39.817Z,99.90
2018-12-01T04:29:07.555Z,99.90
2018-12-01T04:31:35.371Z,99.90
2018-12-01T04:34:03.077Z,99.90
2018-12-01T04:36:31.661Z,99.90
2018-12-01T04:38:59.469Z,99.90
2018-12-01T04:41:27.215Z,99.90
2018-12-01T04:43:54.982Z,99.90
2018-12-01T04:46:22.719Z,99.90
2018-12-01T04:48:51.062Z,99.90
2018-12-01T04:51:18.802Z,99.90
2018-12-01T04:53:46.691Z,99.90
2018-12-01T04:56:14.774Z,99.90
2018-12-01T04:58:43.041Z,99.90
2018-12-01T05:01:10.870Z,99.90
2018-12-01T05:03:38.654Z,99.90
2018-12-01T05:06:06.416Z,99.90
2018-12-01T05:08:34.131Z,99.90
2018-12-01T05:11:01.893Z,99.90
2018-12-01T05:13:29.780Z,99.90
2018-12-01T05:15:57.438Z,99.90
2018-12-01T05:18:25.145Z,99.90
2018-12-01T05:20:52.742Z,99.90
2018-12-01T05:23:20.483Z,99.90
2018-12-01T05:25:48.817Z,99.90
2018-12-01T05:28:16.931Z,99.90
2018-12-01T05:30:44.549Z,99.90
2018-12-01T05:33:12.894Z,99.90
2018-12-01T05:35:41.190Z,99.90
2018-12-01T05:38:09.380Z,99.90
2018-12-01T05:40:37.072Z,99.90
2018-12-01T05:43:05.385Z,99.90
2018-12-01T05:45:33.022Z,99.90
2018-12-01T05:48:01.192Z,99.90
2018-12-01T05:50:28.914Z,99.90
2018-12-01T05:52:57.064Z,99.90
2018-12-01T05:55:25.556Z,99.90
2018-12-01T05:57:53.258Z,99.90
2018-12-01T06:00:21.385Z,99.90
2018-12-01T06:02:48.975Z,99.90
2018-12-01T06:05:16.634Z,99.90
2018-12-01T06:07:44.923Z,99.90
2018-12-01T06:10:20.805Z,99.90
2018-12-01T06:12:49.434Z,99.90
2018-12-01T06:15:17.693Z,99.90
2018-12-01T06:17:46.149Z,99.90
2018-12-01T06:20:16.064Z,99.90
2018-12-01T06:22:44.253Z,99.90
2018-12-01T06:25:13.176Z,99.90
2018-12-01T06:27:40.969Z,99.90
2018-12-01T06:30:13.015Z,99.90
2018-12-01T06:32:40.833Z,99.90
2018-12-01T06:35:08.625Z,99.90
2018-12-01T06:37:36.337Z,99.90
2018-12-01T06:40:06.600Z,99.90
2018-12-01T06:42:34.258Z,99.90
2018-12-01T06:45:01.993Z,99.90
2018-12-01T06:47:29.786Z,99.90
2018-12-01T06:49:57.540Z,99.90
2018-12-01T06:52:25.255Z,99.90
2018-12-01T06:54:53.804Z,99.90
2018-12-01T06:57:21.406Z,99.90
2018-12-01T06:59:49.047Z,99.90
2018-12-01T07:02:16.692Z,99.90
2018-12-01T07:04:44.426Z,99.90
2018-12-01T07:07:12.093Z,99.90
2018-12-01T07:09:39.772Z,99.90
2018-12-01T07:12:07.580Z,99.90
2018-12-01T07:14:35.257Z,99.90
2018-12-01T07:17:02.994Z,99.90
2018-12-01T07:19:30.698Z,99.90
2018-12-01T07:21:58.586Z,99.90
2018-12-01T07:24:26.356Z,99.90
2018-12-01T07:26:54.043Z,99.90
2018-12-01T07:29:21.681Z,99.90
2018-12-01T07:31:49.286Z,99.90
2018-12-01T07:34:17.761Z,99.90
2018-12-01T07:36:45.547Z,99.90
2018-12-01T07:39:13.361Z,99.90
2018-12-01T07:41:41.001Z,99.90
2018-12-01T07:44:09.506Z,99.90
2018-12-01T07:46:37.111Z,99.90
2018-12-01T07:49:05.257Z,99.90
2018-12-01T07:51:32.977Z,99.90
2018-12-01T07:54:00.666Z,99.90
2018-12-01T07:56:28.313Z,99.90
2018-12-01T07:58:55.942Z,99.90
2018-12-01T08:01:24.447Z,99.90
2018-12-01T08:03:52.617Z,99.90
2018-12-01T08:06:20.622Z,99.90
2018-12-01T08:08:48.346Z,99.90
2018-12-01T08:11:16.042Z,99.90
2018-12-01T08:13:43.711Z,99.90
2018-12-01T08:16:12.036Z,99.90
2018-12-01T08:18:39.781Z,99.90
2018-12-01T08:21:07.653Z,99.90
2018-12-01T08:23:35.419Z,99.90
2018-12-01T08:26:03.204Z,99.90
2018-12-01T08:28:30.904Z,99.90
2018-12-01T08:30:58.691Z,99.90
2018-12-01T08:33:26.407Z,99.90
2018-12-01T08:35:54.093Z,99.90
2018-12-01T08:38:21.833Z,99.90
2018-12-01T08:40:49.559Z,99.90
2018-12-01T08:43:18.552Z,99.90
2018-12-01T08:45:46.295Z,99.90
2018-12-01T08:48:13.995Z,99.90
2018-12-01T08:50:41.706Z,99.90
2018-12-01T08:53:09.393Z,99.90
2018-12-01T08:55:37.304Z,99.90
2018-12-01T08:58:05.373Z,99.90
2018-12-01T09:00:37.755Z,99.90
2018-12-01T09:03:22.183Z,99.90
2018-12-01T09:05:50.193Z,99.90
2018-12-01T09:11:21.532Z,46.50
2018-12-01T09:13:49.203Z,35.10
2018-12-01T09:16:17.068Z,42.00
2018-12-01T09:18:44.797Z,51.60
2018-12-01T09:21:12.604Z,60.40
2018-12-01T09:23:41.321Z,62.10
2018-12-01T09:26:09.093Z,64.30
2018-12-01T09:28:37.079Z,63.90
2018-12-01T09:31:05.287Z,65.10
2018-12-01T09:33:33.185Z,66.50
2018-12-01T09:36:01.695Z,64.70
2018-12-01T09:38:29.642Z,64.20
2018-12-01T09:40:57.413Z,63.40
2018-12-01T09:43:25.294Z,63.20
2018-12-01T09:45:53.098Z,63.00
2018-12-01T09:48:20.985Z,90.10
2018-12-01T09:50:49.501Z,54.30
2018-12-01T09:53:17.269Z,55.50
2018-12-01T09:55:44.953Z,57.70
2018-12-01T09:58:13.539Z,59.00
2018-12-01T10:00:41.707Z,58.10
2018-12-01T10:03:09.540Z,60.90
2018-12-01T10:05:37.288Z,60.20
2018-12-01T10:08:06.118Z,61.30
2018-12-01T10:10:34.130Z,61.60
2018-12-01T10:13:02.009Z,60.90
2018-12-01T10:15:32.004Z,60.80
2018-12-01T10:18:00.072Z,60.40
2018-12-01T10:20:33.953Z,60.60
2018-12-01T10:23:04.034Z,60.40
2018-12-01T10:25:31.817Z,60.60
2018-12-01T10:27:59.652Z,61.00
2018-12-01T10:30:27.471Z,60.80
2018-12-01T10:32:55.465Z,61.10
2018-12-01T10:35:24.478Z,61.70
2018-12-01T10:37:57.770Z,62.90
2018-12-01T10:40:25.635Z,62.30
2018-12-01T10:42:53.488Z,62.00
2018-12-01T10:45:21.921Z,61.10
2018-12-01T10:47:49.786Z,60.10
2018-12-01T10:50:21.866Z,60.30
2018-12-01T10:52:51.943Z,57.10
2018-12-01T10:55:31.614Z,56.00
2018-12-01T10:58:01.732Z,55.20
2018-12-01T11:00:36.398Z,55.50
2018-12-01T11:03:11.123Z,54.30
2018-12-01T11:05:38.853Z,55.40
2018-12-01T11:08:07.996Z,55.60
2018-12-01T11:10:36.262Z,53.70
2018-12-01T11:13:05.190Z,55.10
2018-12-01T11:15:33.150Z,54.80
2018-12-01T11:18:00.927Z,55.10
2018-12-01T11:20:32.978Z,54.40
2018-12-01T11:23:01.177Z,53.00
2018-12-01T11:25:29.373Z,54.90
2018-12-01T11:27:58.407Z,54.90
2018-12-01T11:30:26.211Z,54.50
2018-12-01T11:32:54.363Z,55.30
2018-12-01T11:35:22.760Z,55.30
2018-12-01T11:37:51.620Z,55.10
2018-12-01T11:40:19.542Z,56.20
2018-12-01T11:42:47.809Z,55.40
2018-12-01T11:45:17.589Z,54.70
2018-12-01T11:47:45.644Z,55.10
2018-12-01T11:50:14.832Z,54.00
2018-12-01T11:52:43.238Z,54.30
2018-12-01T11:55:21.078Z,53.60
2018-12-01T11:57:49.027Z,52.10
2018-12-01T12:00:18.142Z,50.30
2018-12-01T12:02:46.921Z,50.80
2018-12-01T12:05:15.558Z,49.70
2018-12-01T12:07:54.767Z,49.40
2018-12-01T12:10:22.608Z,49.40
2018-12-01T12:12:50.297Z,49.80
2018-12-01T12:15:18.601Z,50.30
2018-12-01T12:17:49.090Z,50.70
2018-12-01T12:20:16.803Z,49.90
2018-12-01T12:22:44.616Z,50.50
2018-12-01T12:25:12.827Z,51.20
2018-12-01T12:27:40.627Z,51.40
2018-12-01T12:30:18.055Z,50.70
2018-12-01T12:32:46.321Z,51.20
2018-12-01T12:35:15.274Z,49.30
2018-12-01T12:37:43.027Z,49.20
2018-12-01T12:40:15.057Z,49.70
2018-12-01T12:42:44.095Z,50.00
2018-12-01T12:45:12.767Z,49.50
2018-12-01T12:47:40.445Z,48.00
2018-12-01T12:50:16.005Z,48.00
2018-12-01T12:52:44.909Z,47.30
2018-12-01T12:55:15.781Z,47.50
2018-12-01T12:57:43.538Z,48.20
2018-12-01T13:00:27.639Z,48.70
2018-12-01T13:02:59.316Z,47.60
2018-12-01T13:05:29.519Z,48.00
2018-12-01T13:07:57.319Z,48.00
2018-12-01T13:10:25.595Z,48.10
2018-12-01T13:12:54.010Z,47.60
2018-12-01T13:15:21.761Z,48.10
2018-12-01T13:17:51.401Z,48.80
2018-12-01T13:20:22.993Z,48.40
2018-12-01T13:22:55.031Z,48.30
2018-12-01T13:25:22.925Z,49.10
2018-12-01T13:27:55.138Z,49.00
2018-12-01T13:30:24.477Z,48.80
2018-12-01T13:32:52.471Z,48.70
2018-12-01T13:35:20.454Z,49.10
2018-12-01T13:37:48.299Z,49.70
2018-12-01T13:40:16.424Z,49.70
2018-12-01T13:42:44.946Z,50.40
2018-12-01T13:45:14.755Z,50.40
2018-12-01T13:47:42.645Z,51.00
2018-12-01T13:50:13.553Z,51.10
2018-12-01T13:52:41.969Z,51.10
2018-12-01T13:55:10.170Z,51.40
2018-12-01T13:57:38.526Z,50.60
2018-12-01T14:00:12.004Z,50.30
2018-12-01T14:02:40.230Z,50.50
2018-12-01T14:05:09.348Z,50.00
2018-12-01T14:07:37.238Z,49.60
2018-12-01T14:10:20.966Z,50.00
2018-12-01T14:12:50.231Z,50.40
2018-12-01T14:15:19.248Z,50.20
2018-12-01T14:17:47.453Z,50.10
2018-12-01T14:20:16.075Z,49.70
2018-12-01T14:22:44.994Z,50.30
2018-12-01T14:25:13.581Z,51.00
2018-12-01T14:27:43.831Z,51.40
2018-12-01T14:30:16.372Z,51.60
2018-12-01T14:32:44.962Z,52.20
2018-12-01T14:35:21.204Z,51.90
2018-12-01T14:37:53.022Z,51.60
2018-12-01T14:40:21.067Z,51.40
2018-12-01T14:42:48.944Z,50.70
2018-12-01T14:45:17.299Z,50.90
2018-12-01T14:47:45.091Z,50.60
2018-12-01T14:50:14.186Z,51.30
2018-12-01T14:52:42.570Z,51.90
2018-12-01T14:55:15.445Z,51.80
2018-12-01T14:57:43.361Z,52.10
2018-12-01T15:00:14.246Z,52.90
2018-12-01T15:02:41.978Z,53.30
2018-12-01T15:05:11.074Z,53.60
2018-12-01T15:07:38.870Z,53.90
2018-12-01T15:10:11.992Z,54.60
2018-12-01T15:12:39.681Z,55.00
2018-12-01T15:15:10.160Z,55.30
2018-12-01T15:17:37.991Z,56.00
2018-12-01T15:20:09.854Z,56.10
2018-12-01T15:22:37.811Z,58.70
2018-12-01T15:25:07.645Z,59.30
2018-12-01T15:27:35.655Z,60.00
2018-12-01T15:30:07.297Z,60.20
2018-12-01T15:32:35.167Z,60.30
2018-12-01T15:35:03.164Z,60.30
2018-12-01T15:37:30.880Z,60.40
2018-12-01T15:39:58.614Z,60.30
2018-12-01T15:42:26.640Z,60.30
2018-12-01T15:44:54.658Z,60.20
2018-12-01T15:47:22.631Z,60.00
2018-12-01T15:49:51.327Z,60.00
2018-12-01T15:52:19.262Z,60.10
2018-12-01T15:54:47.159Z,60.10
2018-12-01T15:57:14.953Z,60.00
2018-12-01T15:59:49.434Z,60.00
2018-12-01T16:02:17.390Z,59.70
2018-12-01T16:04:45.168Z,60.00
2018-12-01T16:07:13.143Z,59.80
2018-12-01T16:09:41.055Z,59.40
2018-12-01T16:12:08.838Z,59.90
2018-12-01T16:14:36.678Z,59.70
2018-12-01T16:19:38.830Z,59.30
2018-12-01T16:22:07.564Z,59.40
2018-12-01T16:24:35.925Z,59.30
2018-12-01T16:27:03.747Z,59.70
2018-12-01T16:29:31.774Z,59.20
2018-12-01T16:31:59.558Z,58.90
2018-12-01T16:34:27.481Z,59.10
2018-12-01T16:36:55.320Z,59.10
2018-12-01T16:39:23.125Z,58.80
2018-12-01T16:41:51.262Z,58.50
2018-12-01T16:44:19.480Z,58.40
2018-12-01T16:46:47.913Z,58.30
2018-12-01T16:49:15.681Z,57.60
2018-12-01T16:51:43.589Z,57.30
2018-12-01T16:54:12.143Z,57.00
2018-12-01T16:56:39.891Z,56.80
2018-12-01T16:59:07.722Z,56.40
2018-12-01T17:01:35.470Z,56.50
2018-12-01T17:04:04.209Z,56.50
2018-12-01T17:06:31.929Z,56.70
2018-12-01T17:08:59.686Z,56.50
2018-12-01T17:11:28.020Z,56.50
2018-12-01T17:13:55.787Z,56.10
2018-12-01T17:16:23.713Z,55.60
2018-12-01T17:18:51.463Z,55.30
2018-12-01T17:21:19.213Z,55.40
2018-12-01T17:23:46.982Z,55.10
2018-12-01T17:26:14.718Z,54.80
2018-12-01T17:28:42.487Z,55.20
2018-12-01T17:31:10.264Z,54.70
2018-12-01T17:33:38.182Z,55.00
2018-12-01T17:36:06.062Z,54.90
2018-12-01T17:38:34.745Z,54.40
2018-12-01T17:41:14.231Z,53.90
2018-12-01T17:43:47.960Z,53.90
2018-12-01T17:46:16.083Z,53.20
2018-12-01T17:48:43.952Z,52.90
2018-12-01T17:51:11.945Z,52.30
2018-12-01T17:53:40.335Z,52.10
2018-12-01T17:56:08.140Z,52.50
2018-12-01T17:58:36.028Z,52.10
2018-12-01T18:01:04.023Z,50.40
2018-12-01T18:03:31.806Z,52.10
2018-12-01T18:05:59.709Z,50.40
2018-12-01T18:08:28.170Z,50.40
2018-12-01T18:10:55.987Z,50.40
2018-12-01T18:13:24.867Z,50.40
2018-12-01T18:15:52.991Z,50.10
2018-12-01T18:18:21.568Z,49.50
2018-12-01T18:20:49.426Z,49.70
2018-12-01T18:23:18.515Z,49.20
2018-12-01T18:25:50.295Z,47.60
2018-12-01T18:28:23.424Z,46.70
2018-12-01T18:30:51.966Z,46.30
2018-12-01T18:33:26.539Z,48.50
2018-12-01T18:35:54.385Z,46.80
2018-12-01T18:38:22.210Z,46.30
2018-12-01T18:40:50.054Z,47.80
2018-12-01T18:43:18.168Z,48.40
2018-12-01T18:45:47.808Z,47.10
2018-12-01T18:48:15.830Z,48.00
2018-12-01T18:50:43.762Z,47.60
2018-12-01T18:53:12.294Z,46.10
2018-12-01T18:55:42.498Z,46.40
2018-12-01T18:58:10.401Z,46.30
2018-12-01T19:00:47.077Z,45.30
2018-12-01T19:03:15.069Z,44.70
2018-12-01T19:05:42.835Z,45.30
2018-12-01T19:08:10.667Z,44.70
2018-12-01T19:10:38.435Z,44.20
2018-12-01T19:13:06.944Z,43.70
2018-12-01T19:15:34.707Z,43.20
2018-12-01T19:18:02.442Z,41.60
2018-12-01T19:20:30.281Z,41.50
2018-12-01T19:22:58.039Z,40.60
2018-12-01T19:25:26.002Z,40.60
2018-12-01T19:27:55.015Z,40.40
2018-12-01T19:30:23.128Z,40.40
2018-12-01T19:32:57.219Z,40.40
2018-12-01T19:35:25.017Z,40.60
2018-12-01T19:37:53.782Z,40.00
2018-12-01T19:40:28.573Z,39.40
2018-12-01T19:42:52.973Z,39.90
2018-12-01T19:45:20.804Z,39.50
2018-12-01T19:47:48.615Z,39.40
2018-12-01T19:50:20.975Z,39.60
2018-12-01T19:52:48.757Z,39.40
2018-12-01T19:55:17.698Z,39.20
2018-12-01T19:57:45.590Z,38.90
2018-12-01T20:00:15.688Z,38.80
2018-12-01T20:02:43.635Z,39.40
2018-12-01T20:05:13.585Z,38.10
2018-12-01T20:07:41.715Z,38.70
2018-12-01T20:10:15.030Z,38.00
2018-12-01T20:12:44.590Z,37.50
2018-12-01T20:15:33.789Z,37.70
2018-12-01T20:18:04.372Z,37.80
2018-12-01T20:20:32.755Z,37.50
2018-12-01T20:23:00.595Z,37.40
2018-12-01T20:25:28.459Z,37.50
2018-12-01T20:27:56.232Z,38.00
2018-12-01T20:30:23.961Z,37.50
2018-12-01T20:32:51.762Z,37.40
2018-12-01T20:35:30.784Z,37.20
2018-12-01T20:38:01.026Z,37.10
2018-12-01T20:40:28.862Z,37.50
2018-12-01T20:42:56.575Z,37.00
2018-12-01T20:45:24.465Z,37.00
2018-12-01T20:47:52.885Z,36.60
2018-12-01T20:50:20.634Z,36.70
2018-12-01T20:52:48.303Z,36.40
2018-12-01T20:55:19.055Z,36.70
2018-12-01T20:57:48.607Z,36.70
2018-12-01T21:00:16.377Z,37.00
2018-12-01T21:02:44.513Z,37.10
2018-12-01T21:05:14.017Z,37.20
2018-12-01T21:07:42.018Z,36.50
2018-12-01T21:10:11.855Z,36.90
2018-12-01T21:12:39.575Z,36.80
2018-12-01T21:15:10.229Z,37.00
2018-12-01T21:17:38.410Z,37.20
2018-12-01T21:20:10.804Z,36.50
2018-12-01T21:22:38.557Z,36.20
2018-12-01T21:25:09.654Z,36.20
2018-12-01T21:27:37.306Z,36.20
2018-12-01T21:30:11.881Z,36.20
2018-12-01T21:32:39.812Z,36.00
2018-12-01T21:35:10.433Z,36.20
2018-12-01T21:37:38.241Z,36.30
2018-12-01T21:40:09.789Z,36.20
2018-12-01T21:42:38.048Z,36.20
2018-12-01T21:45:08.827Z,36.30
2018-12-01T21:47:36.539Z,36.20
2018-12-01T21:50:07.381Z,35.90
2018-12-01T21:52:35.221Z,36.50
2018-12-01T21:55:03.137Z,36.00
2018-12-01T21:57:30.821Z,35.70
2018-12-01T21:59:58.593Z,35.80
2018-12-01T22:02:26.274Z,35.80
2018-12-01T22:04:54.701Z,36.00
2018-12-01T22:07:22.487Z,35.20
2018-12-01T22:09:50.206Z,35.40
2018-12-01T22:12:17.889Z,35.20
2018-12-01T22:14:45.601Z,34.90
2018-12-01T22:17:14.521Z,34.80
2018-12-01T22:19:42.414Z,34.80
2018-12-01T22:22:10.179Z,34.40
2018-12-01T22:24:38.103Z,34.60
2018-12-01T22:27:05.863Z,34.70
2018-12-01T22:29:33.576Z,34.70
2018-12-01T22:32:01.325Z,34.70
2018-12-01T22:34:29.684Z,34.70
2018-12-01T22:36:57.433Z,35.10
2018-12-01T22:39:25.125Z,34.80
2018-12-01T22:41:52.942Z,34.90
2018-12-01T22:44:21.331Z,34.80
2018-12-01T22:46:49.030Z,35.10
2018-12-01T22:49:16.800Z,35.00
2018-12-01T22:51:44.514Z,34.90
2018-12-01T22:54:13.154Z,35.30
2018-12-01T22:56:40.963Z,35.10
2018-12-01T22:59:08.735Z,35.50
2018-12-01T23:01:36.468Z,35.30
2018-12-01T23:04:04.546Z,35.50
2018-12-01T23:06:32.570Z,35.20
2018-12-01T23:09:00.154Z,35.10
2018-12-01T23:11:27.906Z,35.00
2018-12-01T23:13:55.647Z,35.30
2018-12-01T23:16:23.430Z,35.20
2018-12-01T23:18:51.376Z,35.60
2018-12-01T23:21:20.713Z,35.40
2018-12-01T23:23:47.236Z,35.50
2018-12-01T23:26:14.878Z,35.50
2018-12-01T23:28:42.558Z,35.60
2018-12-01T23:31:11.032Z,35.40
2018-12-01T23:33:38.696Z,35.60
2018-12-01T23:36:07.049Z,35.60
2018-12-01T23:38:34.759Z,35.40
2018-12-01T23:41:02.610Z,35.10
2018-12-01T23:43:30.305Z,35.40
2018-12-01T23:45:58.032Z,35.20
2018-12-01T23:48:26.419Z,35.20
2018-12-01T23:50:55.183Z,35.70
2018-12-01T23:53:24.095Z,36.00
2018-12-01T23:55:51.772Z,35.70
2018-12-01T23:58:19.479Z,35.70
